Pitt Meadows, Canada
Current Conditions -  °F | °C
As of 4:00 PM on Monday 22 Dec 2014 (Local Time) from CYXX Reporting Station
Broken Clouds Broken Clouds  
Wind Chill: 45°   Ceiling: 6500
Heat Index: 45°   Visibility: 25mi
Dew Point: 39°   Wind: 2mph
Humidity: 81%   Direction: 20°NNE
Pressure: 30.38"   Gusts: NA
Location:  49.23°N, 122.68°W
Report Text: CYXX 230000Z 02002KT 25SM BKN065 BKN100 07/04 A3038 RMK SC5AC2 VIRGA SLP290
Loading
Personal Weather Stations






























Interactive Weather Map New forecast layout! Learn more

10-Day Weather Forecast

Advertisements
Track Severe Weather on mobile